Time;durP1;ratioP1;P1;durP2;ratioP2;P2;SDS_P1;SDS_P2;PMS_P1;PMS_P2;Temp;Humidity;BMP_temperature;BMP_pressure;BME280_temperature;BME280_humidity;BME280_pressure;Samples;Min_cycle;Max_cycle;Signal;HPM_P1;HPM_P2
2022/08/05 00:01:53;;;;;;;2.13;2.03;;;25.20;74.30;;;;;;4955847;28;20233;-91
2022/08/05 00:04:34;;;;;;;3.50;2.45;;;25.10;74.90;;;;;;4954992;29;20288;-93
2022/08/05 00:07:03;;;;;;;5.90;2.88;;;25.10;75.30;;;;;;4955486;28;20209;-92
2022/08/05 00:09:51;;;;;;;3.22;2.58;;;25.10;75.00;;;;;;4954752;28;20213;-92
2022/08/05 00:12:23;;;;;;;2.58;2.45;;;25.00;75.40;;;;;;4955756;28;20205;-91
2022/08/05 00:14:51;;;;;;;3.45;3.15;;;25.00;75.60;;;;;;4955585;28;20279;-92
2022/08/05 00:17:20;;;;;;;3.33;3.03;;;25.00;75.70;;;;;;4955369;28;20217;-93
2022/08/05 00:19:49;;;;;;;2.67;2.47;;;24.90;76.40;;;;;;4954642;28;20300;-91
2022/08/05 00:22:30;;;;;;;2.90;2.70;;;24.80;75.70;;;;;;4955181;28;20209;-92
2022/08/05 00:24:58;;;;;;;3.58;3.10;;;24.80;75.80;;;;;;4955242;28;20276;-91
2022/08/05 00:27:29;;;;;;;3.08;2.80;;;24.80;77.10;;;;;;4955145;28;20299;-93
2022/08/05 00:30:04;;;;;;;3.38;3.08;;;24.70;77.40;;;;;;4954621;28;20233;-91
2022/08/05 00:32:38;;;;;;;2.88;2.67;;;24.70;77.40;;;;;;4955135;29;20217;-92
2022/08/05 00:35:08;;;;;;;3.17;2.97;;;24.70;77.40;;;;;;4955079;28;20205;-92
2022/08/05 00:37:36;;;;;;;3.35;2.58;;;24.70;78.30;;;;;;4954944;28;20281;-91
2022/08/05 00:40:26;;;;;;;3.53;3.22;;;24.60;77.80;;;;;;4954810;28;20233;-92
2022/08/05 00:43:00;;;;;;;3.30;2.92;;;24.60;77.80;;;;;;4954875;28;20213;-92
2022/08/05 00:45:29;;;;;;;3.05;2.85;;;24.50;77.90;;;;;;4955713;28;20235;-91
2022/08/05 00:48:07;;;;;;;3.95;3.42;;;24.60;78.40;;;;;;4955184;28;20212;-93
2022/08/05 00:50:37;;;;;;;3.20;2.83;;;24.50;78.40;;;;;;4953794;28;20225;-91
2022/08/05 00:53:08;;;;;;;3.05;2.85;;;24.50;78.40;;;;;;4954693;28;20227;-91
2022/08/05 00:55:56;;;;;;;9.32;2.97;;;24.50;78.90;;;;;;4955477;28;20206;-93
2022/08/05 00:58:26;;;;;;;2.55;2.40;;;24.40;78.90;;;;;;4961554;28;20235;-92
2022/08/05 01:00:55;;;;;;;2.80;2.60;;;24.40;79.60;;;;;;4961576;28;20228;-92
2022/08/05 01:03:25;;;;;;;3.05;2.78;;;24.30;79.00;;;;;;4966239;28;20219;-92
2022/08/05 01:06:00;;;;;;;3.83;3.53;;;24.30;79.30;;;;;;4976702;28;20189;-93
2022/08/05 01:08:32;;;;;;;4.82;3.50;;;24.20;79.60;;;;;;4970306;28;20273;-91
2022/08/05 01:11:15;;;;;;;3.25;2.95;;;24.20;79.60;;;;;;4954632;28;20229;-92
2022/08/05 01:14:01;;;;;;;3.55;3.03;;;24.20;80.10;;;;;;4954776;28;20212;-92
2022/08/05 01:16:34;;;;;;;3.20;3.00;;;24.10;80.10;;;;;;4954524;28;20272;-92
2022/08/05 01:19:14;;;;;;;3.17;2.92;;;24.10;80.90;;;;;;4954362;28;20205;-91
2022/08/05 01:22:31;;;;;;;3.25;3.03;;;24.10;81.40;;;;;;4953425;28;20310;-91
2022/08/05 01:25:18;;;;;;;4.28;3.67;;;24.10;81.10;;;;;;4989314;28;20233;-91
2022/08/05 01:28:17;;;;;;;2.97;2.75;;;24.00;81.00;;;;;;4954208;28;20210;-92
2022/08/05 01:30:51;;;;;;;4.03;3.65;;;24.00;81.70;;;;;;4953944;28;20233;-92
2022/08/05 01:33:28;;;;;;;3.42;3.22;;;23.90;81.30;;;;;;4953990;28;20215;-92
2022/08/05 01:36:09;;;;;;;4.00;3.60;;;23.90;81.70;;;;;;4954165;28;20283;-91
2022/08/05 01:38:46;;;;;;;3.50;3.20;;;23.90;81.70;;;;;;4954115;28;20200;-92
2022/08/05 01:41:21;;;;;;;3.17;2.88;;;23.90;82.00;;;;;;4953794;28;20243;-90
2022/08/05 01:43:56;;;;;;;5.45;3.35;;;23.80;82.30;;;;;;4953815;28;20224;-90
2022/08/05 01:46:26;;;;;;;3.38;3.08;;;23.80;82.10;;;;;;4953650;28;20209;-92
2022/08/05 01:49:17;;;;;;;4.88;3.22;;;23.80;82.70;;;;;;4953400;28;20216;-93
2022/08/05 01:51:56;;;;;;;3.15;2.95;;;23.70;82.70;;;;;;4953558;28;20256;-91
2022/08/05 01:54:29;;;;;;;3.38;3.08;;;23.70;83.30;;;;;;4953786;28;20201;-91
2022/08/05 01:57:00;;;;;;;3.40;2.38;;;23.70;83.10;;;;;;4953838;28;20232;-91
2022/08/05 01:59:52;;;;;;;2.90;2.70;;;23.70;83.20;;;;;;4953232;28;20208;-90
2022/08/05 02:02:23;;;;;;;3.83;3.53;;;23.70;83.80;;;;;;4953786;28;20287;-91
2022/08/05 02:04:58;;;;;;;3.15;2.95;;;23.60;84.40;;;;;;4953494;28;20224;-93
2022/08/05 02:07:27;;;;;;;3.05;2.80;;;23.60;86.50;;;;;;4953910;28;20284;-92
2022/08/05 02:09:58;;;;;;;3.83;3.03;;;23.60;85.10;;;;;;4953503;28;20229;-92
2022/08/05 02:12:33;;;;;;;3.83;3.53;;;23.60;85.10;;;;;;4953346;28;20233;-91
2022/08/05 02:15:09;;;;;;;2.78;2.58;;;23.60;85.00;;;;;;4953378;28;20205;-90
2022/08/05 02:17:45;;;;;;;3.45;3.10;;;23.60;86.60;;;;;;4953204;28;20235;-92
2022/08/05 02:20:40;;;;;;;3.45;3.15;;;23.60;86.40;;;;;;4952151;28;20236;-91
2022/08/05 02:23:11;;;;;;;4.80;3.45;;;23.60;86.30;;;;;;4952211;28;20208;-91
2022/08/05 02:25:44;;;;;;;3.28;2.97;;;23.50;86.90;;;;;;4951605;28;20231;-92
2022/08/05 02:28:26;;;;;;;3.80;3.45;;;23.50;86.90;;;;;;4951842;28;20291;-90
2022/08/05 02:31:07;;;;;;;3.22;2.92;;;23.50;87.20;;;;;;4951886;29;20253;-91
2022/08/05 02:34:00;;;;;;;3.38;3.08;;;23.50;87.60;;;;;;4951881;28;20236;-92
2022/08/05 02:36:31;;;;;;;3.33;3.03;;;23.40;87.60;;;;;;4955421;28;20229;-92
2022/08/05 02:39:02;;;;;;;9.45;3.28;;;23.40;88.10;;;;;;4955190;28;20209;-92
2022/08/05 02:41:36;;;;;;;4.28;3.70;;;23.40;88.50;;;;;;4955216;28;20320;-92
2022/08/05 02:44:26;;;;;;;3.50;3.20;;;23.30;88.40;;;;;;4955228;28;20248;-92
2022/08/05 02:46:58;;;;;;;3.38;3.08;;;23.30;88.60;;;;;;4955072;28;20310;-92
2022/08/05 02:49:32;;;;;;;3.28;2.97;;;23.30;89.50;;;;;;4955013;28;20288;-92
2022/08/05 02:52:09;;;;;;;6.70;3.55;;;23.30;88.70;;;;;;4954894;28;20346;-92
2022/08/05 02:54:42;;;;;;;4.60;3.45;;;23.20;89.70;;;;;;4955147;28;20266;-91
2022/08/05 02:57:20;;;;;;;3.75;3.45;;;23.20;89.70;;;;;;4954875;28;20212;-91
2022/08/05 03:00:11;;;;;;;3.42;3.13;;;23.20;90.00;;;;;;4954915;28;20233;-91
2022/08/05 03:02:43;;;;;;;3.10;2.90;;;23.20;90.40;;;;;;4955024;28;20240;-92
2022/08/05 03:05:13;;;;;;;7.95;3.55;;;23.20;91.50;;;;;;4954583;28;20217;-91
2022/08/05 03:07:43;;;;;;;4.50;3.10;;;23.10;90.90;;;;;;4955098;28;20229;-90
2022/08/05 03:10:31;;;;;;;7.60;3.88;;;23.10;91.50;;;;;;4954813;28;20236;-92
2022/08/05 03:13:00;;;;;;;5.60;3.40;;;23.10;91.60;;;;;;4954723;28;20208;-93
2022/08/05 03:15:27;;;;;;;3.42;3.13;;;23.10;91.80;;;;;;4955015;28;20197;-92
2022/08/05 03:17:57;;;;;;;4.13;3.72;;;23.10;91.60;;;;;;4955202;28;20213;-91
2022/08/05 03:20:26;;;;;;;3.47;3.17;;;23.00;91.40;;;;;;4956408;28;20229;-92
2022/08/05 03:22:56;;;;;;;3.58;2.80;;;23.00;92.30;;;;;;4954981;28;20233;-90
2022/08/05 03:25:26;;;;;;;4.18;3.88;;;23.00;92.50;;;;;;4954505;28;20217;-94
2022/08/05 03:28:15;;;;;;;3.42;3.15;;;23.00;91.80;;;;;;4954618;28;20202;-91
2022/08/05 03:30:48;;;;;;;3.92;3.42;;;22.90;91.60;;;;;;4954301;28;20225;-91
2022/08/05 03:33:19;;;;;;;3.08;2.88;;;22.90;91.90;;;;;;4954763;28;20304;-93
2022/08/05 03:35:50;;;;;;;3.67;3.35;;;23.00;92.50;;;;;;4954522;29;20285;-91
2022/08/05 03:38:18;;;;;;;3.72;3.38;;;22.90;91.80;;;;;;4954718;29;20240;-92
2022/08/05 03:41:01;;;;;;;3.22;2.97;;;22.90;92.20;;;;;;4954152;28;20235;-92
2022/08/05 03:43:36;;;;;;;3.33;3.03;;;22.90;91.50;;;;;;4954416;28;20209;-92
2022/08/05 03:46:24;;;;;;;2.95;2.72;;;22.90;92.00;;;;;;4953576;28;20228;-92
2022/08/05 03:48:58;;;;;;;3.97;3.20;;;23.00;92.30;;;;;;4953818;28;20224;-92
2022/08/05 03:51:35;;;;;;;4.28;3.35;;;23.00;92.00;;;;;;4954092;28;20225;-92
2022/08/05 03:54:31;;;;;;;3.53;3.22;;;23.00;92.50;;;;;;4954253;28;20209;-92
2022/08/05 03:57:25;;;;;;;3.88;3.53;;;22.90;93.60;;;;;;4953962;28;20224;-90
2022/08/05 04:00:12;;;;;;;3.05;2.85;;;22.90;92.70;;;;;;4953824;28;20232;-92
2022/08/05 04:02:46;;;;;;;4.25;3.47;;;22.90;92.40;;;;;;4954199;28;20205;-92
2022/08/05 04:05:31;;;;;;;3.85;3.35;;;22.90;91.80;;;;;;4953832;28;20283;-90
2022/08/05 04:08:03;;;;;;;3.33;3.03;;;23.00;92.60;;;;;;4954110;28;20231;-90
2022/08/05 04:10:44;;;;;;;3.45;3.10;;;23.00;92.00;;;;;;4953977;29;20228;-91
2022/08/05 04:13:12;;;;;;;4.63;3.45;;;23.00;92.30;;;;;;4953835;28;20237;-91
2022/08/05 04:15:41;;;;;;;5.05;3.30;;;23.00;92.00;;;;;;4953720;28;20296;-90
2022/08/05 04:18:30;;;;;;;3.95;3.28;;;23.00;92.50;;;;;;4953643;28;20300;-91
2022/08/05 04:21:04;;;;;;;2.63;2.45;;;23.10;92.20;;;;;;4953427;28;20239;-91
2022/08/05 04:23:34;;;;;;;4.43;3.88;;;23.10;91.90;;;;;;4953962;28;20256;-93
2022/08/05 04:26:22;;;;;;;3.95;3.33;;;23.00;91.70;;;;;;4953476;28;20225;-92
2022/08/05 04:28:51;;;;;;;3.45;3.05;;;23.10;91.40;;;;;;4953614;28;20235;-92
2022/08/05 04:31:20;;;;;;;7.07;3.80;;;23.10;91.40;;;;;;4953611;28;20263;-93
2022/08/05 04:33:48;;;;;;;4.43;3.35;;;23.10;91.50;;;;;;4953343;28;20224;-93
2022/08/05 04:36:38;;;;;;;5.18;3.60;;;23.10;91.60;;;;;;4953494;28;20273;-93
2022/08/05 04:39:17;;;;;;;3.60;3.30;;;23.10;91.90;;;;;;4954022;28;20289;-91
2022/08/05 04:41:46;;;;;;;4.00;3.60;;;23.20;91.90;;;;;;4953936;28;20229;-92
2022/08/05 04:44:15;;;;;;;3.85;3.13;;;23.10;91.60;;;;;;4957453;28;20216;-90
2022/08/05 04:46:57;;;;;;;3.75;3.45;;;23.20;91.40;;;;;;4958808;28;20243;-91
2022/08/05 04:49:26;;;;;;;4.88;3.65;;;23.20;91.30;;;;;;4960529;28;20213;-90
2022/08/05 04:52:16;;;;;;;2.80;2.60;;;23.20;91.60;;;;;;4977130;28;20223;-93
2022/08/05 04:54:45;;;;;;;4.53;2.95;;;23.20;91.30;;;;;;4968921;28;20261;-92
2022/08/05 04:57:16;;;;;;;4.07;3.65;;;23.20;90.70;;;;;;4952414;28;20202;-92
2022/08/05 04:59:44;;;;;;;3.97;3.03;;;23.20;90.70;;;;;;4953216;28;20236;-92
2022/08/05 05:02:15;;;;;;;3.85;3.47;;;23.20;90.70;;;;;;4952989;28;20213;-91
2022/08/05 05:05:04;;;;;;;3.15;2.72;;;23.20;90.80;;;;;;4953239;28;20292;-92
2022/08/05 05:07:54;;;;;;;3.53;3.20;;;23.20;91.00;;;;;;4952936;28;20221;-92
2022/08/05 05:10:28;;;;;;;2.75;2.55;;;23.20;91.00;;;;;;4952843;28;20224;-92
2022/08/05 05:12:57;;;;;;;4.07;2.92;;;23.30;91.10;;;;;;4952959;28;20217;-92
2022/08/05 05:15:28;;;;;;;3.45;3.15;;;23.20;91.30;;;;;;4953257;28;20205;-93
2022/08/05 05:18:17;;;;;;;3.90;3.53;;;23.20;91.50;;;;;;4952914;28;20223;-92
2022/08/05 05:21:00;;;;;;;3.33;2.72;;;23.20;91.60;;;;;;4952695;28;20287;-92
2022/08/05 05:23:30;;;;;;;4.15;3.55;;;23.20;91.60;;;;;;4952909;28;20209;-91
2022/08/05 05:26:18;;;;;;;3.20;2.95;;;23.30;91.50;;;;;;4952529;28;20238;-93
2022/08/05 05:29:00;;;;;;;3.20;2.90;;;23.30;91.70;;;;;;4952851;28;20273;-91
2022/08/05 05:31:29;;;;;;;3.25;3.00;;;23.30;91.50;;;;;;4952515;28;20229;-91
2022/08/05 05:33:58;;;;;;;4.47;3.58;;;23.30;91.40;;;;;;4953108;28;20197;-92
2022/08/05 05:36:30;;;;;;;5.97;3.28;;;23.40;91.30;;;;;;4952563;28;20205;-92
2022/08/05 05:39:00;;;;;;;4.32;3.22;;;23.40;90.90;;;;;;4952752;28;20236;-92
2022/08/05 05:41:31;;;;;;;3.35;2.67;;;23.50;90.90;;;;;;4952582;28;20244;-92
2022/08/05 05:44:08;;;;;;;3.38;3.08;;;23.50;90.60;;;;;;4952688;28;20201;-91
2022/08/05 05:46:59;;;;;;;4.63;3.30;;;23.60;90.70;;;;;;4952356;28;20221;-93
2022/08/05 05:49:40;;;;;;;3.85;3.47;;;23.60;90.70;;;;;;4952644;28;20210;-91
2022/08/05 05:52:08;;;;;;;4.05;2.90;;;23.70;90.90;;;;;;4953468;28;20233;-92
2022/08/05 05:54:54;;;;;;;3.78;3.20;;;23.80;91.00;;;;;;4953097;28;20239;-91
2022/08/05 05:57:23;;;;;;;3.22;2.78;;;23.80;90.80;;;;;;4952230;28;20232;-91
2022/08/05 06:00:12;;;;;;;6.68;3.47;;;23.90;90.70;;;;;;4952512;28;20235;-92
2022/08/05 06:02:41;;;;;;;4.82;3.03;;;23.90;90.90;;;;;;4952619;28;20266;-92
2022/08/05 06:05:11;;;;;;;3.60;2.95;;;23.90;90.90;;;;;;4952150;28;20216;-93
2022/08/05 06:07:44;;;;;;;2.80;2.60;;;24.00;90.80;;;;;;4951799;28;20286;-93
2022/08/05 06:10:32;;;;;;;7.00;2.63;;;24.10;90.80;;;;;;4952048;28;20229;-92
2022/08/05 06:13:04;;;;;;;2.75;2.55;;;24.10;91.00;;;;;;4952276;28;20217;-93
2022/08/05 06:15:33;;;;;;;3.50;3.20;;;24.10;91.10;;;;;;4952176;28;20260;-92
2022/08/05 06:18:22;;;;;;;3.10;2.83;;;24.20;92.30;;;;;;4951755;29;20201;-94
2022/08/05 06:20:59;;;;;;;3.50;2.72;;;24.30;91.10;;;;;;4951879;28;20320;-93
2022/08/05 06:23:27;;;;;;;3.45;3.22;;;24.40;91.70;;;;;;4952235;28;20201;-93
2022/08/05 06:26:12;;;;;;;4.05;3.08;;;24.50;90.90;;;;;;4952141;28;20221;-92
2022/08/05 06:28:51;;;;;;;3.10;2.90;;;24.60;91.50;;;;;;4952208;28;20208;-92
2022/08/05 06:31:19;;;;;;;3.95;3.65;;;24.70;90.80;;;;;;4952088;28;20287;-92
2022/08/05 06:33:49;;;;;;;3.92;3.47;;;24.80;90.50;;;;;;4951805;28;20213;-93
2022/08/05 06:36:35;;;;;;;4.72;3.58;;;24.90;92.30;;;;;;4951874;28;20209;-92
2022/08/05 06:39:23;;;;;;;3.28;2.97;;;24.90;90.60;;;;;;4951599;28;20293;-92
2022/08/05 06:41:56;;;;;;;3.30;3.00;;;24.90;90.60;;;;;;4951839;28;20323;-93
2022/08/05 06:44:26;;;;;;;3.10;2.80;;;25.00;90.40;;;;;;4951805;28;20217;-92
2022/08/05 06:46:54;;;;;;;4.07;3.22;;;25.10;90.90;;;;;;4951650;28;20264;-91
2022/08/05 06:49:23;;;;;;;2.92;2.72;;;25.20;90.20;;;;;;4951364;28;20209;-92
2022/08/05 06:52:12;;;;;;;2.78;2.58;;;25.40;91.10;;;;;;4951454;28;20209;-92
2022/08/05 06:55:00;;;;;;;3.22;2.97;;;25.60;89.80;;;;;;4951402;28;20276;-91
2022/08/05 06:57:31;;;;;;;3.15;2.88;;;25.60;89.50;;;;;;4952023;29;20240;-92
2022/08/05 07:00:20;;;;;;;3.33;2.85;;;25.60;89.40;;;;;;4951417;28;20256;-92
2022/08/05 07:02:49;;;;;;;4.30;2.70;;;25.80;88.90;;;;;;4951608;28;20231;-93
2022/08/05 07:05:21;;;;;;;4.10;3.70;;;26.00;90.40;;;;;;4952023;28;20322;-93
2022/08/05 07:08:06;;;;;;;2.50;2.33;;;26.00;89.10;;;;;;4951121;28;20234;-93
2022/08/05 07:10:39;;;;;;;3.70;3.40;;;26.30;88.50;;;;;;4951347;28;20321;-93
2022/08/05 07:19:33;;;;;;;3.92;3.30;;;26.80;86.70;;;;;;4951399;28;20209;-93
2022/08/05 07:22:21;;;;;;;5.63;3.35;;;27.10;86.40;;;;;;4954138;28;20205;-92
2022/08/05 07:24:58;;;;;;;8.23;3.28;;;27.50;87.30;;;;;;4954562;28;20225;-94
2022/08/05 07:27:47;;;;;;;3.60;3.30;;;27.80;85.30;;;;;;4954688;28;20229;-93
2022/08/05 07:30:29;;;;;;;3.35;3.08;;;28.00;85.30;;;;;;4954420;28;20236;-93
2022/08/05 07:33:01;;;;;;;3.45;3.08;;;27.90;82.90;;;;;;4954444;28;20209;-92
2022/08/05 07:35:37;;;;;;;3.25;2.95;;;28.00;83.60;;;;;;4954589;28;20216;-93
2022/08/05 07:38:26;;;;;;;2.83;2.63;;;28.00;83.80;;;;;;4954385;28;20201;-93
2022/08/05 07:41:02;;;;;;;5.10;2.95;;;28.20;82.50;;;;;;4954882;28;20221;-92
2022/08/05 07:43:53;;;;;;;2.90;2.70;;;28.60;82.20;;;;;;4954333;28;20216;-93
2022/08/05 07:46:26;;;;;;;3.15;2.95;;;29.20;81.00;;;;;;4954363;28;20209;-93
2022/08/05 07:48:56;;;;;;;2.88;2.67;;;29.40;80.60;;;;;;4953478;28;20221;-92
2022/08/05 07:51:35;;;;;;;2.63;2.42;;;29.70;78.70;;;;;;4954217;28;20249;-92
2022/08/05 07:54:25;;;;;;;6.40;3.65;;;30.30;79.60;;;;;;4954225;28;20217;-93
2022/08/05 07:57:00;;;;;;;7.22;2.72;;;31.00;75.80;;;;;;4954222;28;20212;-94
2022/08/05 07:59:49;;;;;;;3.10;2.85;;;31.50;75.10;;;;;;4953837;28;20201;-93
2022/08/05 08:02:24;;;;;;;3.42;3.13;;;32.00;72.00;;;;;;4953896;28;20215;-93
2022/08/05 08:04:54;;;;;;;3.25;3.00;;;32.10;72.10;;;;;;4954539;28;20218;-93
2022/08/05 08:07:23;;;;;;;3.10;2.90;;;32.40;71.90;;;;;;4954143;28;20225;-94
2022/08/05 08:09:55;;;;;;;2.88;2.67;;;33.10;70.80;;;;;;4953967;28;20296;-94
2022/08/05 08:12:24;;;;;;;3.00;2.75;;;33.60;69.10;;;;;;4954065;28;20208;-93
2022/08/05 08:15:08;;;;;;;3.03;2.42;;;34.10;67.80;;;;;;4953720;28;20238;-94
2022/08/05 08:17:45;;;;;;;3.08;2.75;;;34.60;66.60;;;;;;4953635;28;20200;-93
2022/08/05 08:20:21;;;;;;;3.00;2.65;;;35.50;68.20;;;;;;4953681;28;20228;-94
2022/08/05 08:23:10;;;;;;;2.25;2.15;;;35.70;62.40;;;;;;4953823;28;20272;-93
2022/08/05 08:26:01;;;;;;;3.05;2.58;;;35.90;63.30;;;;;;4954092;28;20205;-93
2022/08/05 08:28:32;;;;;;;2.20;2.10;;;35.90;61.40;;;;;;4957904;28;20307;-93
2022/08/05 08:31:20;;;;;;;2.63;2.42;;;36.00;61.30;;;;;;4958932;28;20220;-93
2022/08/05 08:33:51;;;;;;;4.40;2.55;;;36.20;60.90;;;;;;4967054;28;20216;-92
2022/08/05 08:36:20;;;;;;;2.40;2.20;;;36.40;60.50;;;;;;4976996;28;20256;-92
2022/08/05 08:39:09;;;;;;;2.95;2.75;;;36.70;59.40;;;;;;4960900;28;20386;-93
2022/08/05 08:41:45;;;;;;;3.00;2.50;;;37.10;63.00;;;;;;4953645;28;20315;-94
2022/08/05 08:44:28;;;;;;;2.85;2.15;;;37.10;58.60;;;;;;4953615;28;20376;-91
2022/08/05 08:47:22;;;;;;;2.25;2.15;;;36.90;58.70;;;;;;4953455;28;20201;-92
2022/08/05 08:50:13;;;;;;;2.70;2.50;;;37.40;58.10;;;;;;4953573;28;20236;-92
2022/08/05 08:53:05;;;;;;;2.55;2.35;;;37.50;58.80;;;;;;4952928;28;20281;-93
2022/08/05 08:55:40;;;;;;;2.47;2.33;;;37.90;57.90;;;;;;4953579;28;20222;-93
2022/08/05 08:58:30;;;;;;;2.83;2.63;;;38.40;59.70;;;;;;4953561;28;20209;-93
2022/08/05 09:01:15;;;;;;;3.05;2.70;;;38.70;58.10;;;;;;4953589;28;20232;-95
2022/08/05 09:03:47;;;;;;;2.28;2.08;;;39.00;55.10;;;;;;4953301;28;20212;-93
2022/08/05 09:06:25;;;;;;;6.60;2.47;;;39.00;54.80;;;;;;4953394;28;20228;-93
2022/08/05 09:08:58;;;;;;;2.53;2.40;;;38.70;56.30;;;;;;4952784;28;20227;-93
2022/08/05 09:11:27;;;;;;;2.70;2.50;;;39.00;54.30;;;;;;4952679;28;20286;-93
2022/08/05 09:14:16;;;;;;;2.72;2.53;;;38.90;55.10;;;;;;4952660;28;20248;-93
2022/08/05 09:17:06;;;;;;;4.57;2.25;;;39.30;55.00;;;;;;4953165;28;20236;-93
2022/08/05 09:19:37;;;;;;;2.38;2.17;;;39.60;55.20;;;;;;4953148;28;20209;-93
2022/08/05 09:22:27;;;;;;;2.60;2.40;;;39.70;52.90;;;;;;4952804;28;20222;-93
2022/08/05 09:24:59;;;;;;;2.53;2.33;;;40.40;54.80;;;;;;4952841;28;20212;-94
2022/08/05 09:27:33;;;;;;;2.88;2.67;;;40.80;51.50;;;;;;4952780;28;20231;-93
2022/08/05 09:30:22;;;;;;;2.97;2.60;;;40.30;53.00;;;;;;4952640;28;20252;-94
2022/08/05 09:32:53;;;;;;;3.00;2.80;;;40.20;52.60;;;;;;4952757;28;20216;-93
2022/08/05 09:35:24;;;;;;;2.90;2.70;;;40.20;51.50;;;;;;4952615;28;20295;-94
2022/08/05 09:37:57;;;;;;;3.15;2.92;;;39.20;52.30;;;;;;4952995;28;20223;-94
2022/08/05 09:40:45;;;;;;;2.65;2.45;;;39.30;53.80;;;;;;4952801;28;20221;-93
2022/08/05 09:43:29;;;;;;;2.95;2.75;;;39.80;53.30;;;;;;4952048;28;20200;-93
2022/08/05 09:46:25;;;;;;;2.58;2.38;;;40.30;52.80;;;;;;4953034;28;20207;-94
2022/08/05 09:48:56;;;;;;;17.95;2.92;;;40.90;52.20;;;;;;4952606;28;20224;-93
2022/08/05 09:51:44;;;;;;;2.33;2.22;;;41.50;52.00;;;;;;4952210;28;20225;-94
2022/08/05 09:54:30;;;;;;;2.80;2.60;;;41.80;50.50;;;;;;4952397;28;20217;-93
2022/08/05 09:56:59;;;;;;;2.95;2.75;;;41.90;50.30;;;;;;4952571;28;20204;-95
2022/08/05 09:59:29;;;;;;;3.10;2.90;;;41.50;50.00;;;;;;4952512;28;20235;-95
2022/08/05 10:02:05;;;;;;;3.35;2.97;;;41.20;50.50;;;;;;4952201;28;20222;-93
2022/08/05 10:04:39;;;;;;;5.20;2.95;;;40.70;51.40;;;;;;4952455;28;20255;-93
2022/08/05 10:07:08;;;;;;;3.17;2.58;;;40.90;53.80;;;;;;4952271;28;20281;-93
2022/08/05 10:09:58;;;;;;;2.92;2.72;;;41.60;51.50;;;;;;4951616;28;20232;-93
2022/08/05 10:12:44;;;;;;;3.80;3.20;;;42.10;52.30;;;;;;4952084;28;20236;-95
2022/08/05 10:15:25;;;;;;;3.03;2.83;;;41.90;50.00;;;;;;4952363;28;20232;-95
2022/08/05 10:18:21;;;;;;;6.25;3.50;;;41.40;50.20;;;;;;4951935;28;20213;-93
2022/08/05 10:20:52;;;;;;;3.17;2.95;;;41.00;50.30;;;;;;4960494;28;20228;-94
2022/08/05 10:23:23;;;;;;;3.08;2.78;;;40.50;51.00;;;;;;4952410;28;20232;-94
2022/08/05 10:26:13;;;;;;;2.47;2.28;;;40.80;50.60;;;;;;4952068;28;20208;-94
2022/08/05 10:28:42;;;;;;;2.75;2.55;;;40.70;50.70;;;;;;4951800;28;20255;-94
2022/08/05 10:31:13;;;;;;;3.20;3.00;;;40.90;49.60;;;;;;4951750;28;20251;-94
2022/08/05 10:34:02;;;;;;;2.88;2.45;;;41.10;50.60;;;;;;4951911;28;20244;-94
2022/08/05 10:36:31;;;;;;;3.10;2.90;;;40.30;50.60;;;;;;4952229;28;20296;-93
2022/08/05 10:39:03;;;;;;;4.15;3.25;;;39.80;52.00;;;;;;4951758;28;20204;-93
2022/08/05 10:41:47;;;;;;;2.58;2.40;;;39.70;51.80;;;;;;4951825;28;20243;-93
2022/08/05 10:44:20;;;;;;;3.42;3.13;;;40.00;50.60;;;;;;4951819;28;20204;-93
2022/08/05 10:46:50;;;;;;;2.72;2.53;;;40.40;50.80;;;;;;4951927;28;20212;-94
2022/08/05 10:49:22;;;;;;;3.17;2.95;;;40.80;51.70;;;;;;4951601;28;20236;-95
2022/08/05 10:51:57;;;;;;;4.35;2.97;;;41.10;51.10;;;;;;4951583;28;20236;-94
2022/08/05 10:55:06;;;;;;;3.05;2.17;;;41.10;50.50;;;;;;4951845;28;20239;-93
2022/08/05 10:57:40;;;;;;;2.88;2.67;;;41.50;49.60;;;;;;4955107;28;20209;-94
2022/08/05 11:00:15;;;;;;;3.58;3.28;;;41.90;48.50;;;;;;4954736;28;20232;-95
2022/08/05 11:03:09;;;;;;;3.50;3.22;;;42.40;48.10;;;;;;4954815;28;20211;-94
2022/08/05 11:06:13;;;;;;;6.43;3.50;;;42.80;48.40;;;;;;4954747;28;20262;-95
2022/08/05 11:09:19;;;;;;;3.25;3.03;;;42.80;48.70;;;;;;4954740;28;20213;-93
2022/08/05 11:12:26;;;;;;;3.65;3.35;;;42.70;49.30;;;;;;4954938;29;20205;-94
2022/08/05 11:15:08;;;;;;;2.58;2.38;;;43.00;47.70;;;;;;4954491;28;20308;-94
2022/08/05 11:17:48;;;;;;;3.17;2.97;;;43.20;47.40;;;;;;4954737;28;20266;-94
2022/08/05 11:20:39;;;;;;;3.17;2.97;;;43.50;46.70;;;;;;4954485;28;20221;-94
2022/08/05 11:23:52;;;;;;;3.03;2.78;;;43.80;47.40;;;;;;4954605;28;20219;-92
2022/08/05 11:26:40;;;;;;;3.35;3.05;;;43.90;46.20;;;;;;4994442;28;20211;-94
2022/08/05 11:29:39;;;;;;;3.33;3.03;;;43.90;47.20;;;;;;4994218;28;20229;-95
2022/08/05 11:32:26;;;;;;;2.97;2.78;;;43.60;47.50;;;;;;4960111;28;20208;-95
2022/08/05 11:34:56;;;;;;;3.47;3.15;;;43.40;47.40;;;;;;4954444;28;20212;-95
2022/08/05 11:38:00;;;;;;;2.85;2.65;;;43.40;46.30;;;;;;4954518;28;20212;-94
2022/08/05 11:40:59;;;;;;;4.10;3.33;;;43.50;47.70;;;;;;4976487;28;20224;-95
2022/08/05 11:43:54;;;;;;;3.63;3.25;;;43.50;47.00;;;;;;4954363;28;20209;-96
2022/08/05 11:46:35;;;;;;;2.70;2.50;;;43.40;46.40;;;;;;4954570;28;20213;-95
2022/08/05 11:49:08;;;;;;;2.90;2.70;;;43.70;46.30;;;;;;4953940;28;20208;-96
2022/08/05 11:51:37;;;;;;;3.30;3.00;;;43.90;47.00;;;;;;4954516;28;20263;-95
2022/08/05 11:54:23;;;;;;;5.47;3.13;;;44.10;45.40;;;;;;4954158;28;20228;-95
2022/08/05 11:57:03;;;;;;;3.22;2.97;;;44.30;46.70;;;;;;4954181;28;20212;-95
2022/08/05 11:59:51;;;;;;;3.72;3.30;;;44.70;45.90;;;;;;4953918;28;20210;-95
2022/08/05 12:02:25;;;;;;;4.00;3.42;;;44.80;45.60;;;;;;4954106;28;20213;-94
2022/08/05 12:05:01;;;;;;;6.15;3.38;;;44.90;44.10;;;;;;4953896;28;20232;-94
2022/08/05 12:07:36;;;;;;;2.90;2.70;;;44.60;43.40;;;;;;4953324;28;20208;-94
2022/08/05 12:10:27;;;;;;;3.22;3.00;;;44.70;45.90;;;;;;4953779;28;20228;-95
2022/08/05 12:13:10;;;;;;;2.78;2.58;;;44.80;44.90;;;;;;4954073;28;20208;-94
2022/08/05 12:15:44;;;;;;;3.85;2.83;;;45.10;45.70;;;;;;4953683;28;20205;-94
2022/08/05 12:18:18;;;;;;;3.13;2.83;;;44.80;44.70;;;;;;4953906;28;20260;-94
2022/08/05 12:20:53;;;;;;;2.83;2.63;;;44.90;43.90;;;;;;4959971;28;20228;-94
2022/08/05 12:23:21;;;;;;;3.53;3.22;;;44.80;44.30;;;;;;4961244;28;20201;-95
2022/08/05 12:25:51;;;;;;;2.78;2.58;;;45.00;44.00;;;;;;4962795;28;20247;-93
2022/08/05 12:28:37;;;;;;;2.92;2.72;;;45.00;42.80;;;;;;4977144;28;20246;-94
2022/08/05 12:31:06;;;;;;;3.95;3.22;;;44.70;44.10;;;;;;4971897;28;20232;-94
2022/08/05 12:33:35;;;;;;;2.63;2.47;;;44.60;44.60;;;;;;4953977;28;20215;-94
2022/08/05 12:36:08;;;;;;;3.30;2.90;;;44.40;45.30;;;;;;4953839;28;20287;-94
2022/08/05 12:38:38;;;;;;;2.20;2.00;;;44.50;44.90;;;;;;4953219;29;20209;-94
2022/08/05 12:41:09;;;;;;;1.85;1.75;;;44.50;41.30;;;;;;4953015;28;20290;-94
2022/08/05 12:43:52;;;;;;;1.80;1.70;;;44.20;37.10;;;;;;4953285;28;20291;-92
2022/08/05 12:46:24;;;;;;;1.83;1.73;;;44.10;36.10;;;;;;4953313;28;20236;-94
2022/08/05 12:48:58;;;;;;;2.25;1.95;;;43.50;35.60;;;;;;4952873;28;20212;-93
2022/08/05 12:51:30;;;;;;;2.05;1.95;;;43.20;37.80;;;;;;4952781;28;20232;-94
2022/08/05 12:54:23;;;;;;;2.42;2.22;;;42.70;38.10;;;;;;4953290;28;20212;-93
2022/08/05 12:56:55;;;;;;;1.65;1.58;;;42.50;39.90;;;;;;4953179;28;20271;-94
2022/08/05 12:59:25;;;;;;;2.28;2.17;;;42.50;40.20;;;;;;4953294;28;20208;-94
2022/08/05 13:02:17;;;;;;;1.77;1.67;;;42.40;40.70;;;;;;4952890;28;20205;-92
2022/08/05 13:04:46;;;;;;;2.22;2.10;;;;;;;;;;4953198;28;20208;-93
2022/08/05 13:07:24;;;;;;;2.58;2.38;;;41.30;40.70;;;;;;4952441;28;20223;-95
2022/08/05 13:10:14;;;;;;;2.35;2.13;;;40.80;41.40;;;;;;4951862;28;20225;-93
2022/08/05 13:12:47;;;;;;;1.85;1.75;;;40.60;41.20;;;;;;4952858;28;20209;-94
2022/08/05 13:15:30;;;;;;;1.90;1.80;;;40.40;41.50;;;;;;4952436;28;20228;-93
2022/08/05 13:18:18;;;;;;;3.15;2.45;;;40.20;40.90;;;;;;4951887;28;20319;-94
2022/08/05 13:20:48;;;;;;;2.15;2.03;;;40.20;41.10;;;;;;4952554;28;20221;-94
2022/08/05 13:23:19;;;;;;;2.80;2.60;;;40.20;41.70;;;;;;4952461;28;20209;-96
2022/08/05 13:25:50;;;;;;;2.47;2.28;;;40.50;44.40;;;;;;4952605;28;20224;-96
2022/08/05 13:28:28;;;;;;;3.10;2.17;;;40.70;42.40;;;;;;4952403;28;20204;-93
2022/08/05 13:30:59;;;;;;;2.78;2.58;;;40.90;41.70;;;;;;4952287;28;20265;-94
2022/08/05 13:33:42;;;;;;;2.13;2.00;;;40.80;42.10;;;;;;4952465;28;20208;-94
2022/08/05 13:36:30;;;;;;;2.45;2.25;;;40.90;43.10;;;;;;4952005;28;20215;-94
2022/08/05 13:39:01;;;;;;;2.30;2.10;;;40.70;41.70;;;;;;4952553;28;20228;-94
2022/08/05 13:41:36;;;;;;;2.40;2.20;;;40.50;42.10;;;;;;4952556;28;20259;-93
2022/08/05 13:44:05;;;;;;;2.00;1.90;;;39.70;42.60;;;;;;4952288;28;20266;-93
2022/08/05 13:46:37;;;;;;;2.42;2.22;;;39.30;43.10;;;;;;4952260;28;20211;-93
2022/08/05 13:49:25;;;;;;;4.82;2.08;;;38.90;43.90;;;;;;4951724;28;20209;-93
2022/08/05 13:51:54;;;;;;;2.50;2.30;;;38.60;44.80;;;;;;4951626;29;20258;-94